sensor_id;sensor_type;location;lat;lon;timestamp;P1;durP1;ratioP1;P2;durP2;ratioP2
18526;SDS011;9393;42.158;24.748;2023-03-01T00:01:36;2.13;;;1.77;;
18526;SDS011;9393;42.158;24.748;2023-03-01T00:04:40;5.23;;;1.70;;
18526;SDS011;9393;42.158;24.748;2023-03-01T00:07:44;2.50;;;2.10;;
18526;SDS011;9393;42.158;24.748;2023-03-01T00:10:49;3.33;;;2.00;;
18526;SDS011;9393;42.158;24.748;2023-03-01T00:13:53;1.77;;;1.60;;
18526;SDS011;9393;42.158;24.748;2023-03-01T00:16:59;3.87;;;2.93;;
18526;SDS011;9393;42.158;24.748;2023-03-01T00:20:04;4.40;;;3.23;;
18526;SDS011;9393;42.158;24.748;2023-03-01T00:23:10;4.33;;;3.07;;
18526;SDS011;9393;42.158;24.748;2023-03-01T00:26:15;7.97;;;3.57;;
18526;SDS011;9393;42.158;24.748;2023-03-01T00:29:20;2.63;;;2.30;;
18526;SDS011;9393;42.158;24.748;2023-03-01T00:32:23;8.30;;;5.40;;
18526;SDS011;9393;42.158;24.748;2023-03-01T00:35:27;10.30;;;5.03;;
18526;SDS011;9393;42.158;24.748;2023-03-01T00:38:34;7.33;;;4.10;;
18526;SDS011;9393;42.158;24.748;2023-03-01T00:41:39;5.10;;;3.20;;
18526;SDS011;9393;42.158;24.748;2023-03-01T00:44:43;4.00;;;3.40;;
18526;SDS011;9393;42.158;24.748;2023-03-01T00:47:47;4.33;;;3.20;;
18526;SDS011;9393;42.158;24.748;2023-03-01T00:50:51;4.27;;;2.87;;
18526;SDS011;9393;42.158;24.748;2023-03-01T00:53:56;3.63;;;2.70;;
18526;SDS011;9393;42.158;24.748;2023-03-01T00:57:02;2.67;;;2.30;;
18526;SDS011;9393;42.158;24.748;2023-03-01T01:00:06;2.03;;;1.77;;
18526;SDS011;9393;42.158;24.748;2023-03-01T01:03:13;2.23;;;2.03;;
18526;SDS011;9393;42.158;24.748;2023-03-01T01:06:17;2.00;;;1.80;;
18526;SDS011;9393;42.158;24.748;2023-03-01T01:09:22;1.90;;;1.77;;
18526;SDS011;9393;42.158;24.748;2023-03-01T01:12:28;2.20;;;1.67;;
18526;SDS011;9393;42.158;24.748;2023-03-01T01:15:33;1.87;;;1.60;;
18526;SDS011;9393;42.158;24.748;2023-03-01T01:18:37;1.70;;;1.60;;
18526;SDS011;9393;42.158;24.748;2023-03-01T01:21:42;2.10;;;1.90;;
18526;SDS011;9393;42.158;24.748;2023-03-01T01:24:46;2.20;;;1.97;;
18526;SDS011;9393;42.158;24.748;2023-03-01T01:27:51;3.30;;;2.10;;
18526;SDS011;9393;42.158;24.748;2023-03-01T01:30:55;2.57;;;2.10;;
18526;SDS011;9393;42.158;24.748;2023-03-01T01:33:59;2.93;;;2.17;;
18526;SDS011;9393;42.158;24.748;2023-03-01T01:37:04;9.87;;;5.00;;
18526;SDS011;9393;42.158;24.748;2023-03-01T01:40:10;10.47;;;4.50;;
18526;SDS011;9393;42.158;24.748;2023-03-01T01:43:18;15.03;;;5.93;;
18526;SDS011;9393;42.158;24.748;2023-03-01T01:46:25;39.87;;;14.40;;
18526;SDS011;9393;42.158;24.748;2023-03-01T01:49:35;22.63;;;9.07;;
18526;SDS011;9393;42.158;24.748;2023-03-01T01:52:41;27.37;;;10.80;;
18526;SDS011;9393;42.158;24.748;2023-03-01T01:55:45;8.90;;;4.57;;
18526;SDS011;9393;42.158;24.748;2023-03-01T01:58:53;9.40;;;4.80;;
18526;SDS011;9393;42.158;24.748;2023-03-01T02:01:58;2.37;;;2.10;;
18526;SDS011;9393;42.158;24.748;2023-03-01T02:05:06;6.53;;;3.73;;
18526;SDS011;9393;42.158;24.748;2023-03-01T02:08:14;6.97;;;3.93;;
18526;SDS011;9393;42.158;24.748;2023-03-01T02:11:21;9.67;;;4.67;;
18526;SDS011;9393;42.158;24.748;2023-03-01T02:14:27;11.30;;;5.97;;
18526;SDS011;9393;42.158;24.748;2023-03-01T02:17:30;6.23;;;3.30;;
18526;SDS011;9393;42.158;24.748;2023-03-01T02:20:38;4.97;;;3.33;;
18526;SDS011;9393;42.158;24.748;2023-03-01T02:23:48;3.60;;;2.60;;
18526;SDS011;9393;42.158;24.748;2023-03-01T02:26:53;3.23;;;2.70;;
18526;SDS011;9393;42.158;24.748;2023-03-01T02:29:59;2.87;;;2.57;;
18526;SDS011;9393;42.158;24.748;2023-03-01T02:33:03;4.57;;;2.53;;
18526;SDS011;9393;42.158;24.748;2023-03-01T02:36:07;3.60;;;2.23;;
18526;SDS011;9393;42.158;24.748;2023-03-01T02:39:15;8.33;;;5.07;;
18526;SDS011;9393;42.158;24.748;2023-03-01T02:42:23;12.73;;;5.57;;
18526;SDS011;9393;42.158;24.748;2023-03-01T02:45:33;5.70;;;3.57;;
18526;SDS011;9393;42.158;24.748;2023-03-01T02:48:41;20.40;;;10.03;;
18526;SDS011;9393;42.158;24.748;2023-03-01T02:51:50;10.67;;;5.67;;
18526;SDS011;9393;42.158;24.748;2023-03-01T02:55:05;3.70;;;3.10;;
18526;SDS011;9393;42.158;24.748;2023-03-01T02:58:11;8.73;;;5.07;;
18526;SDS011;9393;42.158;24.748;2023-03-01T03:01:17;3.30;;;2.50;;
18526;SDS011;9393;42.158;24.748;2023-03-01T03:04:21;4.17;;;2.83;;
18526;SDS011;9393;42.158;24.748;2023-03-01T03:07:25;3.37;;;2.77;;
18526;SDS011;9393;42.158;24.748;2023-03-01T03:10:30;3.90;;;2.90;;
18526;SDS011;9393;42.158;24.748;2023-03-01T03:13:36;3.83;;;1.73;;
18526;SDS011;9393;42.158;24.748;2023-03-01T03:16:45;3.37;;;2.47;;
18526;SDS011;9393;42.158;24.748;2023-03-01T03:19:51;4.30;;;3.10;;
18526;SDS011;9393;42.158;24.748;2023-03-01T03:22:55;3.87;;;3.10;;
18526;SDS011;9393;42.158;24.748;2023-03-01T03:26:01;3.37;;;3.00;;
18526;SDS011;9393;42.158;24.748;2023-03-01T03:29:06;5.07;;;3.27;;
18526;SDS011;9393;42.158;24.748;2023-03-01T03:32:11;4.27;;;3.60;;
18526;SDS011;9393;42.158;24.748;2023-03-01T03:35:15;6.50;;;3.90;;
18526;SDS011;9393;42.158;24.748;2023-03-01T03:38:19;5.37;;;3.67;;
18526;SDS011;9393;42.158;24.748;2023-03-01T03:41:23;4.60;;;3.77;;
18526;SDS011;9393;42.158;24.748;2023-03-01T03:44:27;4.27;;;3.33;;
18526;SDS011;9393;42.158;24.748;2023-03-01T03:47:32;5.53;;;4.10;;
18526;SDS011;9393;42.158;24.748;2023-03-01T03:50:35;4.07;;;3.20;;
18526;SDS011;9393;42.158;24.748;2023-03-01T03:53:40;3.90;;;2.80;;
18526;SDS011;9393;42.158;24.748;2023-03-01T03:56:44;3.47;;;3.07;;
18526;SDS011;9393;42.158;24.748;2023-03-01T04:00:06;2.90;;;2.50;;
18526;SDS011;9393;42.158;24.748;2023-03-01T04:03:17;3.17;;;2.53;;
18526;SDS011;9393;42.158;24.748;2023-03-01T04:06:22;2.90;;;2.63;;
18526;SDS011;9393;42.158;24.748;2023-03-01T04:09:26;3.43;;;2.90;;
18526;SDS011;9393;42.158;24.748;2023-03-01T04:12:32;2.80;;;2.50;;
18526;SDS011;9393;42.158;24.748;2023-03-01T04:15:36;3.27;;;2.60;;
18526;SDS011;9393;42.158;24.748;2023-03-01T04:18:42;3.10;;;2.80;;
18526;SDS011;9393;42.158;24.748;2023-03-01T04:21:45;3.60;;;2.80;;
18526;SDS011;9393;42.158;24.748;2023-03-01T04:24:49;2.90;;;2.60;;
18526;SDS011;9393;42.158;24.748;2023-03-01T04:27:53;3.20;;;2.80;;
18526;SDS011;9393;42.158;24.748;2023-03-01T04:30:57;3.63;;;2.87;;
18526;SDS011;9393;42.158;24.748;2023-03-01T04:34:03;4.33;;;2.87;;
18526;SDS011;9393;42.158;24.748;2023-03-01T04:37:07;3.40;;;2.93;;
18526;SDS011;9393;42.158;24.748;2023-03-01T04:40:11;6.07;;;3.80;;
18526;SDS011;9393;42.158;24.748;2023-03-01T04:43:18;3.87;;;3.10;;
18526;SDS011;9393;42.158;24.748;2023-03-01T04:46:21;3.83;;;3.10;;
18526;SDS011;9393;42.158;24.748;2023-03-01T04:49:26;4.13;;;3.00;;
18526;SDS011;9393;42.158;24.748;2023-03-01T04:52:30;6.27;;;3.53;;
18526;SDS011;9393;42.158;24.748;2023-03-01T04:55:34;4.03;;;3.40;;
18526;SDS011;9393;42.158;24.748;2023-03-01T04:58:39;4.17;;;3.50;;
18526;SDS011;9393;42.158;24.748;2023-03-01T05:01:42;5.80;;;4.07;;
18526;SDS011;9393;42.158;24.748;2023-03-01T05:04:47;13.00;;;5.80;;
18526;SDS011;9393;42.158;24.748;2023-03-01T05:07:52;20.20;;;7.97;;
18526;SDS011;9393;42.158;24.748;2023-03-01T05:10:56;15.53;;;7.23;;
18526;SDS011;9393;42.158;24.748;2023-03-01T05:14:00;5.37;;;3.50;;
18526;SDS011;9393;42.158;24.748;2023-03-01T05:17:04;11.27;;;6.10;;
18526;SDS011;9393;42.158;24.748;2023-03-01T05:20:10;8.13;;;5.27;;
18526;SDS011;9393;42.158;24.748;2023-03-01T05:23:14;33.93;;;12.87;;
18526;SDS011;9393;42.158;24.748;2023-03-01T05:26:18;15.63;;;7.63;;
18526;SDS011;9393;42.158;24.748;2023-03-01T05:29:40;15.17;;;6.87;;
18526;SDS011;9393;42.158;24.748;2023-03-01T05:32:44;13.53;;;6.90;;
18526;SDS011;9393;42.158;24.748;2023-03-01T05:35:51;9.87;;;5.17;;
18526;SDS011;9393;42.158;24.748;2023-03-01T05:38:55;7.67;;;4.23;;
18526;SDS011;9393;42.158;24.748;2023-03-01T05:41:59;7.30;;;4.80;;
18526;SDS011;9393;42.158;24.748;2023-03-01T05:45:04;11.80;;;6.57;;
18526;SDS011;9393;42.158;24.748;2023-03-01T05:48:11;11.30;;;7.33;;
18526;SDS011;9393;42.158;24.748;2023-03-01T05:51:17;9.93;;;5.90;;
18526;SDS011;9393;42.158;24.748;2023-03-01T05:54:20;8.27;;;4.63;;
18526;SDS011;9393;42.158;24.748;2023-03-01T05:57:24;8.40;;;5.17;;
18526;SDS011;9393;42.158;24.748;2023-03-01T06:00:31;8.57;;;4.93;;
18526;SDS011;9393;42.158;24.748;2023-03-01T06:03:35;8.57;;;5.00;;
18526;SDS011;9393;42.158;24.748;2023-03-01T06:06:40;11.47;;;5.83;;
18526;SDS011;9393;42.158;24.748;2023-03-01T06:09:44;8.57;;;4.50;;
18526;SDS011;9393;42.158;24.748;2023-03-01T06:12:48;5.90;;;4.70;;
18526;SDS011;9393;42.158;24.748;2023-03-01T06:15:51;4.83;;;4.27;;
18526;SDS011;9393;42.158;24.748;2023-03-01T06:18:55;5.30;;;4.17;;
18526;SDS011;9393;42.158;24.748;2023-03-01T06:22:02;9.77;;;4.80;;
18526;SDS011;9393;42.158;24.748;2023-03-01T06:25:06;4.40;;;3.93;;
18526;SDS011;9393;42.158;24.748;2023-03-01T06:28:10;5.03;;;3.77;;
18526;SDS011;9393;42.158;24.748;2023-03-01T06:31:14;5.23;;;4.63;;
18526;SDS011;9393;42.158;24.748;2023-03-01T06:34:18;5.70;;;4.23;;
18526;SDS011;9393;42.158;24.748;2023-03-01T06:37:25;6.20;;;4.50;;
18526;SDS011;9393;42.158;24.748;2023-03-01T06:40:29;7.20;;;4.50;;
18526;SDS011;9393;42.158;24.748;2023-03-01T06:43:34;7.37;;;4.23;;
18526;SDS011;9393;42.158;24.748;2023-03-01T06:46:38;9.33;;;4.17;;
18526;SDS011;9393;42.158;24.748;2023-03-01T06:49:42;9.63;;;6.33;;
18526;SDS011;9393;42.158;24.748;2023-03-01T06:52:47;9.60;;;7.07;;
18526;SDS011;9393;42.158;24.748;2023-03-01T06:55:53;7.00;;;5.70;;
18526;SDS011;9393;42.158;24.748;2023-03-01T06:58:57;7.97;;;4.40;;
18526;SDS011;9393;42.158;24.748;2023-03-01T07:02:01;5.90;;;3.73;;
18526;SDS011;9393;42.158;24.748;2023-03-01T07:05:05;7.53;;;5.70;;
18526;SDS011;9393;42.158;24.748;2023-03-01T07:08:11;7.00;;;6.07;;
18526;SDS011;9393;42.158;24.748;2023-03-01T07:11:15;7.43;;;6.10;;
18526;SDS011;9393;42.158;24.748;2023-03-01T07:14:19;4.50;;;3.80;;
18526;SDS011;9393;42.158;24.748;2023-03-01T07:17:23;4.67;;;3.20;;
18526;SDS011;9393;42.158;24.748;2023-03-01T07:20:26;5.83;;;3.57;;
18526;SDS011;9393;42.158;24.748;2023-03-01T07:23:32;5.43;;;3.50;;
18526;SDS011;9393;42.158;24.748;2023-03-01T07:26:36;3.73;;;2.93;;
18526;SDS011;9393;42.158;24.748;2023-03-01T07:29:40;5.47;;;3.33;;
18526;SDS011;9393;42.158;24.748;2023-03-01T07:32:44;5.80;;;3.50;;
18526;SDS011;9393;42.158;24.748;2023-03-01T07:35:48;3.93;;;3.27;;
18526;SDS011;9393;42.158;24.748;2023-03-01T07:39:01;5.23;;;2.90;;
18526;SDS011;9393;42.158;24.748;2023-03-01T07:42:05;7.53;;;3.00;;
18526;SDS011;9393;42.158;24.748;2023-03-01T07:45:09;4.33;;;2.80;;
18526;SDS011;9393;42.158;24.748;2023-03-01T07:48:15;4.73;;;3.20;;
18526;SDS011;9393;42.158;24.748;2023-03-01T07:51:19;3.00;;;2.40;;
18526;SDS011;9393;42.158;24.748;2023-03-01T07:54:24;3.67;;;2.30;;
18526;SDS011;9393;42.158;24.748;2023-03-01T07:57:28;2.73;;;2.30;;
18526;SDS011;9393;42.158;24.748;2023-03-01T08:00:32;2.40;;;2.20;;
18526;SDS011;9393;42.158;24.748;2023-03-01T08:03:35;6.70;;;3.63;;
18526;SDS011;9393;42.158;24.748;2023-03-01T08:06:40;2.57;;;2.10;;
18526;SDS011;9393;42.158;24.748;2023-03-01T08:09:45;3.00;;;2.20;;
18526;SDS011;9393;42.158;24.748;2023-03-01T08:12:50;4.03;;;2.60;;
18526;SDS011;9393;42.158;24.748;2023-03-01T08:16:00;4.60;;;2.67;;
18526;SDS011;9393;42.158;24.748;2023-03-01T08:19:05;3.43;;;1.80;;
18526;SDS011;9393;42.158;24.748;2023-03-01T08:22:09;3.07;;;1.27;;
18526;SDS011;9393;42.158;24.748;2023-03-01T08:25:14;2.23;;;1.50;;
18526;SDS011;9393;42.158;24.748;2023-03-01T08:28:18;1.73;;;1.43;;
18526;SDS011;9393;42.158;24.748;2023-03-01T08:31:23;1.73;;;1.30;;
18526;SDS011;9393;42.158;24.748;2023-03-01T08:34:29;2.40;;;1.67;;
18526;SDS011;9393;42.158;24.748;2023-03-01T08:37:33;3.87;;;2.60;;
18526;SDS011;9393;42.158;24.748;2023-03-01T08:40:38;4.27;;;2.87;;
18526;SDS011;9393;42.158;24.748;2023-03-01T08:43:42;3.37;;;1.93;;
18526;SDS011;9393;42.158;24.748;2023-03-01T08:46:46;3.50;;;2.40;;
18526;SDS011;9393;42.158;24.748;2023-03-01T08:49:51;15.03;;;6.57;;
18526;SDS011;9393;42.158;24.748;2023-03-01T08:52:55;6.63;;;2.80;;
18526;SDS011;9393;42.158;24.748;2023-03-01T08:56:01;7.67;;;2.83;;
18526;SDS011;9393;42.158;24.748;2023-03-01T08:59:05;6.90;;;2.20;;
18526;SDS011;9393;42.158;24.748;2023-03-01T09:02:11;13.73;;;5.60;;
18526;SDS011;9393;42.158;24.748;2023-03-01T09:05:16;8.07;;;4.57;;
18526;SDS011;9393;42.158;24.748;2023-03-01T09:08:21;3.57;;;2.23;;
18526;SDS011;9393;42.158;24.748;2023-03-01T09:11:27;3.50;;;2.27;;
18526;SDS011;9393;42.158;24.748;2023-03-01T09:14:31;8.27;;;4.37;;
18526;SDS011;9393;42.158;24.748;2023-03-01T09:17:35;9.57;;;4.17;;
18526;SDS011;9393;42.158;24.748;2023-03-01T09:20:39;9.33;;;6.87;;
18526;SDS011;9393;42.158;24.748;2023-03-01T09:23:44;9.80;;;4.93;;
18526;SDS011;9393;42.158;24.748;2023-03-01T09:26:51;2.50;;;1.70;;
18526;SDS011;9393;42.158;24.748;2023-03-01T09:29:57;7.13;;;3.67;;
18526;SDS011;9393;42.158;24.748;2023-03-01T09:33:01;3.87;;;2.10;;
18526;SDS011;9393;42.158;24.748;2023-03-01T09:36:06;3.03;;;2.70;;
18526;SDS011;9393;42.158;24.748;2023-03-01T09:39:13;5.10;;;3.47;;
18526;SDS011;9393;42.158;24.748;2023-03-01T09:42:18;5.40;;;3.00;;
18526;SDS011;9393;42.158;24.748;2023-03-01T09:45:25;2.60;;;1.83;;
18526;SDS011;9393;42.158;24.748;2023-03-01T09:48:37;6.73;;;3.10;;
18526;SDS011;9393;42.158;24.748;2023-03-01T09:51:50;2.57;;;1.27;;
18526;SDS011;9393;42.158;24.748;2023-03-01T09:54:58;1.93;;;1.50;;
18526;SDS011;9393;42.158;24.748;2023-03-01T09:58:06;3.23;;;1.40;;
18526;SDS011;9393;42.158;24.748;2023-03-01T10:01:33;8.77;;;7.70;;
18526;SDS011;9393;42.158;24.748;2023-03-01T10:04:43;4.03;;;2.30;;
18526;SDS011;9393;42.158;24.748;2023-03-01T10:07:53;3.03;;;2.40;;
18526;SDS011;9393;42.158;24.748;2023-03-01T10:11:05;3.93;;;1.50;;
18526;SDS011;9393;42.158;24.748;2023-03-01T10:14:29;3.87;;;1.70;;
18526;SDS011;9393;42.158;24.748;2023-03-01T10:17:37;1.90;;;1.40;;
18526;SDS011;9393;42.158;24.748;2023-03-01T10:20:48;2.80;;;1.33;;
18526;SDS011;9393;42.158;24.748;2023-03-01T10:23:56;2.90;;;1.50;;
18526;SDS011;9393;42.158;24.748;2023-03-01T10:27:12;3.77;;;2.53;;
18526;SDS011;9393;42.158;24.748;2023-03-01T10:30:29;3.07;;;1.73;;
18526;SDS011;9393;42.158;24.748;2023-03-01T10:33:40;3.43;;;2.10;;
18526;SDS011;9393;42.158;24.748;2023-03-01T10:36:45;3.20;;;2.37;;
18526;SDS011;9393;42.158;24.748;2023-03-01T10:39:56;3.40;;;2.10;;
18526;SDS011;9393;42.158;24.748;2023-03-01T10:43:02;4.23;;;2.27;;
18526;SDS011;9393;42.158;24.748;2023-03-01T10:46:17;3.93;;;1.90;;
18526;SDS011;9393;42.158;24.748;2023-03-01T10:49:26;2.90;;;2.23;;
18526;SDS011;9393;42.158;24.748;2023-03-01T10:52:31;3.70;;;2.00;;
18526;SDS011;9393;42.158;24.748;2023-03-01T10:55:38;2.83;;;1.83;;
18526;SDS011;9393;42.158;24.748;2023-03-01T10:58:56;4.77;;;2.30;;
18526;SDS011;9393;42.158;24.748;2023-03-01T11:02:08;3.73;;;2.57;;
18526;SDS011;9393;42.158;24.748;2023-03-01T11:05:26;1.50;;;1.37;;
18526;SDS011;9393;42.158;24.748;2023-03-01T11:08:33;3.27;;;1.40;;
18526;SDS011;9393;42.158;24.748;2023-03-01T11:11:40;3.03;;;1.67;;
18526;SDS011;9393;42.158;24.748;2023-03-01T11:14:46;4.27;;;1.90;;
18526;SDS011;9393;42.158;24.748;2023-03-01T11:17:52;4.20;;;2.67;;
18526;SDS011;9393;42.158;24.748;2023-03-01T11:21:13;4.13;;;2.60;;
18526;SDS011;9393;42.158;24.748;2023-03-01T11:24:18;4.43;;;2.10;;
18526;SDS011;9393;42.158;24.748;2023-03-01T11:27:27;5.10;;;2.50;;
18526;SDS011;9393;42.158;24.748;2023-03-01T11:30:35;3.43;;;1.57;;
18526;SDS011;9393;42.158;24.748;2023-03-01T11:33:46;2.77;;;1.83;;
18526;SDS011;9393;42.158;24.748;2023-03-01T11:36:53;2.67;;;1.60;;
18526;SDS011;9393;42.158;24.748;2023-03-01T11:40:04;3.23;;;1.83;;
18526;SDS011;9393;42.158;24.748;2023-03-01T11:43:17;6.80;;;2.10;;
18526;SDS011;9393;42.158;24.748;2023-03-01T11:46:36;4.97;;;1.57;;
18526;SDS011;9393;42.158;24.748;2023-03-01T11:50:04;9.33;;;4.67;;
18526;SDS011;9393;42.158;24.748;2023-03-01T11:56:48;4.03;;;1.80;;
18526;SDS011;9393;42.158;24.748;2023-03-01T11:59:59;2.07;;;1.40;;
18526;SDS011;9393;42.158;24.748;2023-03-01T12:03:25;2.57;;;1.60;;
18526;SDS011;9393;42.158;24.748;2023-03-01T12:06:48;2.10;;;1.70;;
18526;SDS011;9393;42.158;24.748;2023-03-01T12:10:02;2.67;;;2.00;;
18526;SDS011;9393;42.158;24.748;2023-03-01T12:13:27;2.57;;;1.60;;
18526;SDS011;9393;42.158;24.748;2023-03-01T12:16:58;3.00;;;2.23;;
18526;SDS011;9393;42.158;24.748;2023-03-01T12:23:40;3.37;;;1.50;;
18526;SDS011;9393;42.158;24.748;2023-03-01T12:27:11;3.33;;;1.70;;
18526;SDS011;9393;42.158;24.748;2023-03-01T12:30:44;3.83;;;2.30;;
18526;SDS011;9393;42.158;24.748;2023-03-01T12:34:00;5.03;;;2.60;;
18526;SDS011;9393;42.158;24.748;2023-03-01T12:37:14;3.77;;;1.80;;
18526;SDS011;9393;42.158;24.748;2023-03-01T12:44:09;4.03;;;2.17;;
18526;SDS011;9393;42.158;24.748;2023-03-01T12:47:23;6.03;;;2.47;;
18526;SDS011;9393;42.158;24.748;2023-03-01T12:50:38;3.67;;;2.30;;
18526;SDS011;9393;42.158;24.748;2023-03-01T12:53:46;4.47;;;1.63;;
18526;SDS011;9393;42.158;24.748;2023-03-01T12:56:53;3.37;;;2.60;;
18526;SDS011;9393;42.158;24.748;2023-03-01T13:00:02;3.43;;;1.90;;
18526;SDS011;9393;42.158;24.748;2023-03-01T13:03:22;7.90;;;2.37;;
18526;SDS011;9393;42.158;24.748;2023-03-01T13:06:32;2.97;;;2.53;;
18526;SDS011;9393;42.158;24.748;2023-03-01T13:09:46;6.47;;;2.47;;
18526;SDS011;9393;42.158;24.748;2023-03-01T13:13:12;4.20;;;2.50;;
18526;SDS011;9393;42.158;24.748;2023-03-01T13:16:38;4.70;;;2.27;;
18526;SDS011;9393;42.158;24.748;2023-03-01T13:19:46;5.40;;;2.73;;
18526;SDS011;9393;42.158;24.748;2023-03-01T13:23:00;3.40;;;2.20;;
18526;SDS011;9393;42.158;24.748;2023-03-01T13:26:10;5.77;;;2.50;;
18526;SDS011;9393;42.158;24.748;2023-03-01T13:29:26;2.67;;;2.30;;
18526;SDS011;9393;42.158;24.748;2023-03-01T13:32:30;6.03;;;1.93;;
18526;SDS011;9393;42.158;24.748;2023-03-01T13:35:45;4.43;;;2.43;;
18526;SDS011;9393;42.158;24.748;2023-03-01T13:38:55;3.47;;;2.80;;
18526;SDS011;9393;42.158;24.748;2023-03-01T13:42:00;7.17;;;2.70;;
18526;SDS011;9393;42.158;24.748;2023-03-01T13:45:12;5.20;;;2.70;;
18526;SDS011;9393;42.158;24.748;2023-03-01T13:48:25;5.63;;;2.57;;
18526;SDS011;9393;42.158;24.748;2023-03-01T13:51:30;3.27;;;2.47;;
18526;SDS011;9393;42.158;24.748;2023-03-01T13:54:35;3.33;;;2.50;;
18526;SDS011;9393;42.158;24.748;2023-03-01T13:57:43;5.33;;;3.00;;
18526;SDS011;9393;42.158;24.748;2023-03-01T14:00:56;3.80;;;2.50;;
18526;SDS011;9393;42.158;24.748;2023-03-01T14:04:18;4.77;;;2.70;;
18526;SDS011;9393;42.158;24.748;2023-03-01T14:07:24;4.13;;;2.20;;
18526;SDS011;9393;42.158;24.748;2023-03-01T14:10:32;7.43;;;3.00;;
18526;SDS011;9393;42.158;24.748;2023-03-01T14:13:48;4.20;;;2.90;;
18526;SDS011;9393;42.158;24.748;2023-03-01T14:17:07;6.47;;;3.50;;
18526;SDS011;9393;42.158;24.748;2023-03-01T14:20:24;5.60;;;3.20;;
18526;SDS011;9393;42.158;24.748;2023-03-01T14:23:30;5.67;;;3.70;;
18526;SDS011;9393;42.158;24.748;2023-03-01T14:26:37;5.27;;;3.17;;
18526;SDS011;9393;42.158;24.748;2023-03-01T14:29:41;7.70;;;3.80;;
18526;SDS011;9393;42.158;24.748;2023-03-01T14:32:53;6.57;;;3.50;;
18526;SDS011;9393;42.158;24.748;2023-03-01T14:36:25;7.97;;;3.70;;
18526;SDS011;9393;42.158;24.748;2023-03-01T14:39:30;12.83;;;6.17;;
18526;SDS011;9393;42.158;24.748;2023-03-01T14:42:35;8.77;;;4.43;;
18526;SDS011;9393;42.158;24.748;2023-03-01T14:45:42;19.37;;;8.27;;
18526;SDS011;9393;42.158;24.748;2023-03-01T14:48:54;16.70;;;8.17;;
18526;SDS011;9393;42.158;24.748;2023-03-01T14:52:05;12.83;;;6.07;;
18526;SDS011;9393;42.158;24.748;2023-03-01T14:55:20;7.63;;;4.63;;
18526;SDS011;9393;42.158;24.748;2023-03-01T14:58:27;6.60;;;4.40;;
18526;SDS011;9393;42.158;24.748;2023-03-01T15:01:31;6.97;;;4.03;;
18526;SDS011;9393;42.158;24.748;2023-03-01T15:04:37;6.07;;;5.10;;
18526;SDS011;9393;42.158;24.748;2023-03-01T15:07:42;9.37;;;6.93;;
18526;SDS011;9393;42.158;24.748;2023-03-01T15:10:57;8.60;;;6.00;;
18526;SDS011;9393;42.158;24.748;2023-03-01T15:14:05;7.33;;;5.10;;
18526;SDS011;9393;42.158;24.748;2023-03-01T15:17:53;8.23;;;5.73;;
18526;SDS011;9393;42.158;24.748;2023-03-01T15:21:06;7.77;;;5.37;;
18526;SDS011;9393;42.158;24.748;2023-03-01T15:24:16;8.33;;;4.67;;
18526;SDS011;9393;42.158;24.748;2023-03-01T15:27:23;8.30;;;4.40;;
18526;SDS011;9393;42.158;24.748;2023-03-01T15:30:29;4.93;;;3.53;;
18526;SDS011;9393;42.158;24.748;2023-03-01T15:33:39;5.57;;;2.43;;
18526;SDS011;9393;42.158;24.748;2023-03-01T15:36:50;7.97;;;4.43;;
18526;SDS011;9393;42.158;24.748;2023-03-01T15:39:55;6.37;;;4.50;;
18526;SDS011;9393;42.158;24.748;2023-03-01T15:43:00;11.70;;;4.20;;
18526;SDS011;9393;42.158;24.748;2023-03-01T15:46:11;10.57;;;4.57;;
18526;SDS011;9393;42.158;24.748;2023-03-01T15:49:24;4.83;;;2.87;;
18526;SDS011;9393;42.158;24.748;2023-03-01T15:52:35;4.43;;;3.07;;
18526;SDS011;9393;42.158;24.748;2023-03-01T15:55:44;3.53;;;2.70;;
18526;SDS011;9393;42.158;24.748;2023-03-01T15:58:51;7.37;;;2.97;;
18526;SDS011;9393;42.158;24.748;2023-03-01T16:01:55;20.97;;;10.30;;
18526;SDS011;9393;42.158;24.748;2023-03-01T16:04:58;40.77;;;16.33;;
18526;SDS011;9393;42.158;24.748;2023-03-01T16:08:04;47.17;;;21.83;;
18526;SDS011;9393;42.158;24.748;2023-03-01T16:11:13;18.93;;;9.37;;
18526;SDS011;9393;42.158;24.748;2023-03-01T16:14:18;25.40;;;12.60;;
18526;SDS011;9393;42.158;24.748;2023-03-01T16:17:23;21.50;;;13.47;;
18526;SDS011;9393;42.158;24.748;2023-03-01T16:20:28;26.50;;;15.63;;
18526;SDS011;9393;42.158;24.748;2023-03-01T16:23:36;39.07;;;24.13;;
18526;SDS011;9393;42.158;24.748;2023-03-01T16:26:40;13.40;;;8.33;;
18526;SDS011;9393;42.158;24.748;2023-03-01T16:29:44;19.17;;;10.20;;
18526;SDS011;9393;42.158;24.748;2023-03-01T16:32:48;16.90;;;8.97;;
18526;SDS011;9393;42.158;24.748;2023-03-01T16:35:53;22.70;;;12.30;;
18526;SDS011;9393;42.158;24.748;2023-03-01T16:38:59;12.93;;;8.70;;
18526;SDS011;9393;42.158;24.748;2023-03-01T16:42:04;15.27;;;8.07;;
18526;SDS011;9393;42.158;24.748;2023-03-01T16:45:09;11.23;;;6.20;;
18526;SDS011;9393;42.158;24.748;2023-03-01T16:48:24;14.80;;;9.53;;
18526;SDS011;9393;42.158;24.748;2023-03-01T16:51:28;11.30;;;7.50;;
18526;SDS011;9393;42.158;24.748;2023-03-01T16:54:37;15.07;;;10.03;;
18526;SDS011;9393;42.158;24.748;2023-03-01T16:57:42;17.67;;;11.63;;
18526;SDS011;9393;42.158;24.748;2023-03-01T17:00:46;16.47;;;10.37;;
18526;SDS011;9393;42.158;24.748;2023-03-01T17:03:50;14.50;;;9.00;;
18526;SDS011;9393;42.158;24.748;2023-03-01T17:06:53;15.27;;;10.33;;
18526;SDS011;9393;42.158;24.748;2023-03-01T17:10:09;11.37;;;8.20;;
18526;SDS011;9393;42.158;24.748;2023-03-01T17:13:14;15.03;;;9.63;;
18526;SDS011;9393;42.158;24.748;2023-03-01T17:16:18;13.10;;;9.20;;
18526;SDS011;9393;42.158;24.748;2023-03-01T17:19:23;10.93;;;8.33;;
18526;SDS011;9393;42.158;24.748;2023-03-01T17:22:27;15.47;;;9.80;;
18526;SDS011;9393;42.158;24.748;2023-03-01T17:25:32;22.50;;;14.30;;
18526;SDS011;9393;42.158;24.748;2023-03-01T17:28:36;14.07;;;8.03;;
18526;SDS011;9393;42.158;24.748;2023-03-01T17:31:40;10.47;;;6.00;;
18526;SDS011;9393;42.158;24.748;2023-03-01T17:34:44;17.43;;;10.57;;
18526;SDS011;9393;42.158;24.748;2023-03-01T17:37:48;18.57;;;10.83;;
18526;SDS011;9393;42.158;24.748;2023-03-01T17:40:53;14.70;;;9.20;;
18526;SDS011;9393;42.158;24.748;2023-03-01T17:43:57;22.07;;;12.60;;
18526;SDS011;9393;42.158;24.748;2023-03-01T17:47:01;16.87;;;9.13;;
18526;SDS011;9393;42.158;24.748;2023-03-01T17:50:06;19.77;;;11.80;;
18526;SDS011;9393;42.158;24.748;2023-03-01T17:53:11;17.50;;;10.87;;
18526;SDS011;9393;42.158;24.748;2023-03-01T17:56:17;17.33;;;11.47;;
18526;SDS011;9393;42.158;24.748;2023-03-01T17:59:20;22.57;;;13.63;;
18526;SDS011;9393;42.158;24.748;2023-03-01T18:02:24;22.27;;;11.80;;
18526;SDS011;9393;42.158;24.748;2023-03-01T18:05:30;15.40;;;10.73;;
18526;SDS011;9393;42.158;24.748;2023-03-01T18:08:34;27.77;;;18.57;;
18526;SDS011;9393;42.158;24.748;2023-03-01T18:11:40;19.27;;;12.07;;
18526;SDS011;9393;42.158;24.748;2023-03-01T18:14:57;31.03;;;20.10;;
18526;SDS011;9393;42.158;24.748;2023-03-01T18:18:01;24.53;;;16.73;;
18526;SDS011;9393;42.158;24.748;2023-03-01T18:21:05;16.87;;;12.47;;
18526;SDS011;9393;42.158;24.748;2023-03-01T18:24:10;28.70;;;19.73;;
18526;SDS011;9393;42.158;24.748;2023-03-01T18:27:15;17.33;;;10.17;;
18526;SDS011;9393;42.158;24.748;2023-03-01T18:30:20;22.50;;;14.60;;
18526;SDS011;9393;42.158;24.748;2023-03-01T18:33:23;21.87;;;13.33;;
18526;SDS011;9393;42.158;24.748;2023-03-01T18:36:29;21.53;;;13.73;;
18526;SDS011;9393;42.158;24.748;2023-03-01T18:39:34;14.17;;;9.73;;
18526;SDS011;9393;42.158;24.748;2023-03-01T18:42:39;18.47;;;12.40;;
18526;SDS011;9393;42.158;24.748;2023-03-01T18:45:43;13.27;;;9.37;;
18526;SDS011;9393;42.158;24.748;2023-03-01T18:48:47;14.97;;;9.27;;
18526;SDS011;9393;42.158;24.748;2023-03-01T18:51:51;19.63;;;11.47;;
18526;SDS011;9393;42.158;24.748;2023-03-01T18:54:56;16.27;;;10.93;;